createdAt,value
2023-05-09T00:02:14.668Z,17.44
2023-05-09T00:04:41.619Z,17.42
2023-05-09T00:07:10.380Z,17.50
2023-05-09T00:09:37.032Z,17.48
2023-05-09T00:12:04.147Z,17.44
2023-05-09T00:14:30.784Z,17.56
2023-05-09T00:16:59.239Z,17.54
2023-05-09T00:19:26.041Z,17.54
2023-05-09T00:21:52.656Z,17.51
2023-05-09T00:24:19.276Z,17.42
2023-05-09T00:26:45.966Z,17.36
2023-05-09T00:29:12.649Z,17.32
2023-05-09T00:31:39.296Z,17.32
2023-05-09T00:34:05.930Z,17.21
2023-05-09T00:36:32.714Z,17.21
2023-05-09T00:38:59.389Z,17.17
2023-05-09T00:41:26.034Z,17.17
2023-05-09T00:43:52.772Z,17.12
2023-05-09T00:46:19.776Z,17.20
2023-05-09T00:48:46.775Z,17.17
2023-05-09T00:51:13.610Z,17.16
2023-05-09T00:53:40.747Z,17.12
2023-05-09T00:56:08.432Z,17.11
2023-05-09T00:58:35.127Z,17.10
2023-05-09T01:01:03.707Z,17.03
2023-05-09T01:03:31.607Z,17.03
2023-05-09T01:06:39.729Z,17.08
2023-05-09T01:09:29.227Z,17.12
2023-05-09T01:12:16.442Z,17.02
2023-05-09T01:15:08.405Z,17.04
2023-05-09T01:17:48.801Z,16.99
2023-05-09T01:20:30.402Z,16.99
2023-05-09T01:23:27.987Z,16.97
2023-05-09T01:26:17.815Z,16.92
2023-05-09T01:29:31.697Z,17.00
2023-05-09T01:32:02.936Z,16.76
2023-05-09T01:34:32.466Z,16.74
2023-05-09T01:37:01.168Z,16.62
2023-05-09T01:39:29.940Z,16.57
2023-05-09T01:41:59.443Z,16.58
2023-05-09T01:44:32.343Z,16.60
2023-05-09T01:47:01.138Z,16.47
2023-05-09T01:49:31.457Z,16.62
2023-05-09T01:52:01.221Z,16.44
2023-05-09T01:54:28.812Z,16.42
2023-05-09T01:56:55.993Z,16.91
2023-05-09T01:59:23.698Z,16.87
2023-05-09T02:01:50.792Z,16.54
2023-05-09T02:04:18.838Z,16.53
2023-05-09T02:06:50.607Z,16.44
2023-05-09T02:09:19.419Z,16.29
2023-05-09T02:11:46.860Z,16.25
2023-05-09T02:14:14.253Z,16.24
2023-05-09T02:16:41.571Z,16.30
2023-05-09T02:19:08.932Z,16.27
2023-05-09T02:21:36.199Z,16.30
2023-05-09T02:24:03.560Z,16.26
2023-05-09T02:26:30.848Z,16.26
2023-05-09T02:28:58.773Z,16.23
2023-05-09T02:31:29.613Z,16.19
2023-05-09T02:33:57.320Z,16.15
2023-05-09T02:36:24.462Z,16.61
2023-05-09T02:38:51.550Z,16.73
2023-05-09T02:41:18.629Z,16.40
2023-05-09T02:43:45.948Z,16.35
2023-05-09T02:46:12.734Z,16.29
2023-05-09T02:48:39.595Z,16.29
2023-05-09T02:51:06.341Z,16.22
2023-05-09T02:53:33.286Z,16.17
2023-05-09T02:55:59.961Z,16.14
2023-05-09T02:58:26.699Z,16.16
2023-05-09T03:00:53.394Z,16.17
2023-05-09T03:03:22.112Z,16.37
2023-05-09T03:05:49.907Z,16.23
2023-05-09T03:08:16.617Z,16.29
2023-05-09T03:10:44.172Z,16.22
2023-05-09T03:13:11.105Z,16.26
2023-05-09T03:15:38.194Z,16.29
2023-05-09T03:18:06.251Z,16.32
2023-05-09T03:20:33.106Z,16.66
2023-05-09T03:23:00.137Z,16.74
2023-05-09T03:25:26.933Z,16.70
2023-05-09T03:27:53.599Z,16.73
2023-05-09T03:30:20.380Z,16.65
2023-05-09T03:32:49.216Z,16.48
2023-05-09T03:35:16.291Z,16.39
2023-05-09T03:37:43.472Z,16.30
2023-05-09T03:40:10.830Z,16.58
2023-05-09T03:42:45.771Z,16.72
2023-05-09T03:45:12.570Z,16.55
2023-05-09T03:47:39.688Z,16.47
2023-05-09T03:50:07.142Z,16.46
2023-05-09T03:52:34.590Z,16.60
2023-05-09T03:55:01.852Z,16.61
2023-05-09T03:57:34.553Z,16.51
2023-05-09T04:00:01.627Z,16.32
2023-05-09T04:02:36.011Z,16.32
2023-05-09T04:05:03.277Z,16.28
2023-05-09T04:07:31.589Z,16.40
2023-05-09T04:09:58.470Z,16.71
2023-05-09T04:12:25.177Z,16.75
2023-05-09T04:14:52.234Z,16.69
2023-05-09T04:17:19.460Z,16.54
2023-05-09T04:19:46.214Z,16.55
2023-05-09T04:22:12.924Z,16.45
2023-05-09T04:24:39.666Z,16.48
2023-05-09T04:27:06.806Z,16.45
2023-05-09T04:29:35.250Z,16.34
2023-05-09T04:32:02.503Z,16.34
2023-05-09T04:34:29.677Z,16.39
2023-05-09T04:36:59.899Z,16.33
2023-05-09T04:39:26.600Z,16.20
2023-05-09T04:42:02.621Z,16.21
2023-05-09T04:44:29.267Z,16.29
2023-05-09T04:46:58.091Z,16.25
2023-05-09T04:49:24.891Z,16.33
2023-05-09T04:51:51.800Z,16.31
2023-05-09T04:54:18.584Z,16.40
2023-05-09T04:56:45.796Z,16.57
2023-05-09T04:59:13.442Z,16.58
2023-05-09T05:01:40.280Z,16.47
2023-05-09T05:04:07.078Z,16.43
2023-05-09T05:06:33.936Z,16.41
2023-05-09T05:09:00.858Z,16.47
2023-05-09T05:11:27.958Z,16.74
2023-05-09T05:13:55.261Z,16.60
2023-05-09T05:16:22.576Z,16.77
2023-05-09T05:18:49.505Z,16.77
2023-05-09T05:21:17.598Z,16.80
2023-05-09T05:23:44.972Z,16.74
2023-05-09T05:26:12.815Z,16.86
2023-05-09T05:28:40.067Z,16.85
2023-05-09T05:31:07.104Z,16.90
2023-05-09T05:33:33.974Z,16.85
2023-05-09T05:36:02.101Z,16.79
2023-05-09T05:38:28.805Z,16.85
2023-05-09T05:40:57.059Z,17.00
2023-05-09T05:43:25.090Z,16.94
2023-05-09T05:45:51.881Z,17.13
2023-05-09T05:48:22.169Z,17.04
2023-05-09T05:50:48.900Z,16.97
2023-05-09T05:53:18.734Z,16.91
2023-05-09T05:55:46.801Z,16.96
2023-05-09T05:58:13.714Z,17.04
2023-05-09T06:00:40.504Z,17.32
2023-05-09T06:03:08.773Z,17.16
2023-05-09T06:05:44.385Z,17.14
2023-05-09T06:08:12.035Z,17.17
2023-05-09T06:10:38.738Z,17.27
2023-05-09T06:13:05.484Z,17.24
2023-05-09T06:15:33.184Z,17.12
2023-05-09T06:18:00.219Z,17.26
2023-05-09T06:20:27.982Z,17.45
2023-05-09T06:22:54.785Z,17.44
2023-05-09T06:25:21.553Z,17.26
2023-05-09T06:27:48.181Z,17.08
2023-05-09T06:30:25.449Z,17.07
2023-05-09T06:32:54.857Z,17.16
2023-05-09T06:35:21.859Z,17.25
2023-05-09T06:37:49.186Z,17.33
2023-05-09T06:40:17.180Z,17.52
2023-05-09T06:42:44.928Z,17.58
2023-05-09T06:45:12.036Z,17.51
2023-05-09T06:47:38.753Z,17.45
2023-05-09T06:50:06.054Z,17.48
2023-05-09T06:52:32.664Z,17.41
2023-05-09T06:54:59.385Z,17.33
2023-05-09T06:57:26.258Z,17.47
2023-05-09T06:59:52.898Z,17.39
2023-05-09T07:02:19.687Z,17.40
2023-05-09T07:04:46.536Z,17.47
2023-05-09T07:07:13.270Z,17.24
2023-05-09T07:09:39.952Z,17.39
2023-05-09T07:12:06.710Z,17.37
2023-05-09T07:14:33.368Z,17.45
2023-05-09T07:17:13.697Z,17.38
2023-05-09T07:19:45.440Z,17.40
2023-05-09T07:22:13.398Z,17.62
2023-05-09T07:24:40.298Z,17.73
2023-05-09T07:27:07.043Z,17.91
2023-05-09T07:29:33.826Z,18.14
2023-05-09T07:32:00.631Z,18.28
2023-05-09T07:34:27.331Z,18.12
2023-05-09T07:36:54.165Z,18.15
2023-05-09T07:39:20.936Z,18.18
2023-05-09T07:41:48.765Z,18.19
2023-05-09T07:44:15.859Z,18.04
2023-05-09T07:46:42.805Z,18.13
2023-05-09T07:49:09.670Z,18.23
2023-05-09T07:51:36.588Z,18.37
2023-05-09T07:54:03.637Z,18.39
2023-05-09T07:56:30.504Z,18.26
2023-05-09T07:58:57.186Z,18.09
2023-05-09T08:01:23.905Z,18.23
2023-05-09T08:03:50.724Z,18.27
2023-05-09T08:06:17.630Z,18.11
2023-05-09T08:08:44.296Z,18.20
2023-05-09T08:11:10.984Z,18.27
2023-05-09T08:13:37.672Z,18.48
2023-05-09T08:16:04.685Z,18.60
2023-05-09T08:18:31.592Z,18.61
2023-05-09T08:20:59.549Z,18.53
2023-05-09T08:23:26.827Z,18.49
2023-05-09T08:25:54.645Z,18.56
2023-05-09T08:28:24.138Z,18.63
2023-05-09T08:30:51.821Z,18.58
2023-05-09T08:33:18.881Z,18.46
2023-05-09T08:35:46.063Z,18.40
2023-05-09T08:38:12.752Z,18.50
2023-05-09T08:40:40.989Z,18.60
2023-05-09T08:43:08.543Z,18.71
2023-05-09T08:45:40.190Z,18.78
2023-05-09T08:48:08.328Z,18.71
2023-05-09T08:50:35.560Z,18.75
2023-05-09T08:53:02.650Z,18.68
2023-05-09T08:55:29.552Z,18.71
2023-05-09T08:57:57.839Z,18.74
2023-05-09T09:00:26.279Z,18.66
2023-05-09T09:02:55.139Z,18.65
2023-05-09T09:05:40.063Z,18.83
2023-05-09T09:08:08.986Z,18.85
2023-05-09T09:10:36.248Z,18.93
2023-05-09T09:13:04.859Z,19.00
2023-05-09T09:15:36.770Z,18.98
2023-05-09T09:18:10.111Z,18.86
2023-05-09T09:20:58.264Z,18.73
2023-05-09T09:23:27.218Z,18.70
2023-05-09T09:26:02.143Z,18.80
2023-05-09T09:28:29.656Z,18.92
2023-05-09T09:30:57.098Z,19.12
2023-05-09T09:33:25.701Z,19.15
2023-05-09T09:35:54.359Z,19.12
2023-05-09T09:38:23.169Z,18.98
2023-05-09T09:40:56.727Z,18.85
2023-05-09T09:43:31.112Z,18.79
2023-05-09T09:46:01.733Z,18.86
2023-05-09T09:48:35.394Z,18.72
2023-05-09T09:51:08.299Z,18.65
2023-05-09T09:53:42.379Z,18.81
2023-05-09T09:56:09.447Z,18.69
2023-05-09T09:58:36.475Z,18.64
2023-05-09T10:01:07.362Z,18.68
2023-05-09T10:03:41.967Z,18.72
2023-05-09T10:06:16.743Z,18.93
2023-05-09T10:08:47.008Z,19.11
2023-05-09T10:11:14.130Z,19.25
2023-05-09T10:13:42.441Z,19.38
2023-05-09T10:16:10.088Z,19.66
2023-05-09T10:18:39.576Z,19.81
2023-05-09T10:21:12.045Z,19.87
2023-05-09T10:23:45.661Z,20.17
2023-05-09T10:26:23.550Z,20.26
2023-05-09T10:28:55.854Z,20.31
2023-05-09T10:31:27.217Z,20.35
2023-05-09T10:33:55.859Z,20.38
2023-05-09T10:36:25.921Z,20.42
2023-05-09T10:38:56.126Z,20.53
2023-05-09T10:41:23.604Z,20.46
2023-05-09T10:43:50.459Z,20.45
2023-05-09T10:46:17.849Z,20.51
2023-05-09T10:48:45.597Z,20.59
2023-05-09T10:51:13.040Z,20.47
2023-05-09T10:53:45.203Z,20.42
2023-05-09T10:56:32.321Z,20.24
2023-05-09T10:59:00.138Z,20.15
2023-05-09T11:01:37.500Z,20.18
2023-05-09T11:04:14.433Z,20.48
2023-05-09T11:06:41.721Z,20.65
2023-05-09T11:09:28.042Z,20.60
2023-05-09T11:12:08.666Z,20.61
2023-05-09T11:14:35.549Z,20.87
2023-05-09T11:17:04.387Z,20.91
2023-05-09T11:19:47.625Z,20.85
2023-05-09T11:22:22.619Z,20.80
2023-05-09T11:25:00.171Z,20.73
2023-05-09T11:27:28.496Z,20.66
2023-05-09T11:29:59.212Z,20.74
2023-05-09T11:32:32.764Z,20.80
2023-05-09T11:35:17.474Z,20.96
2023-05-09T11:37:49.827Z,20.80
2023-05-09T11:40:18.577Z,20.80
2023-05-09T11:42:50.554Z,20.76
2023-05-09T11:45:18.007Z,20.66
2023-05-09T11:47:45.870Z,20.62
2023-05-09T11:50:14.231Z,20.64
2023-05-09T11:52:41.829Z,20.63
2023-05-09T11:55:12.504Z,20.69
2023-05-09T11:57:51.121Z,20.61
2023-05-09T12:00:20.382Z,20.38
2023-05-09T12:02:48.025Z,20.36
2023-05-09T12:05:17.488Z,20.38
2023-05-09T12:07:45.262Z,20.48
2023-05-09T12:10:14.313Z,20.69
2023-05-09T12:12:51.294Z,20.90
2023-05-09T12:15:19.840Z,21.03
2023-05-09T12:17:50.391Z,21.14
2023-05-09T12:20:18.791Z,21.19
2023-05-09T12:22:53.238Z,21.17
2023-05-09T12:25:19.975Z,20.95
2023-05-09T12:27:47.578Z,20.94
2023-05-09T12:30:16.053Z,21.03
2023-05-09T12:32:43.608Z,21.02
2023-05-09T12:35:11.147Z,20.83
2023-05-09T12:37:38.394Z,20.83
2023-05-09T12:40:08.680Z,20.86
2023-05-09T12:42:35.835Z,20.88
2023-05-09T12:45:04.282Z,20.89
2023-05-09T12:47:34.932Z,20.86
2023-05-09T12:50:04.467Z,20.88
2023-05-09T12:52:50.181Z,20.98
2023-05-09T12:55:21.430Z,21.00
2023-05-09T12:58:03.766Z,21.18
2023-05-09T13:00:43.290Z,21.25
2023-05-09T13:03:25.232Z,21.14
2023-05-09T13:06:02.182Z,21.14
2023-05-09T13:08:29.328Z,21.28
2023-05-09T13:11:08.071Z,21.28
2023-05-09T13:13:42.428Z,21.28
2023-05-09T13:16:10.763Z,21.04
2023-05-09T13:18:38.873Z,20.94
2023-05-09T13:21:05.853Z,21.00
2023-05-09T13:23:32.613Z,21.02
2023-05-09T13:25:59.267Z,20.97
2023-05-09T13:28:25.931Z,20.96
2023-05-09T13:30:52.652Z,20.91
2023-05-09T13:33:25.906Z,20.81
2023-05-09T13:35:53.745Z,20.68
2023-05-09T13:38:20.530Z,20.65
2023-05-09T13:40:47.322Z,20.64
2023-05-09T13:43:13.957Z,20.60
2023-05-09T13:45:40.651Z,20.86
2023-05-09T13:48:07.418Z,20.97
2023-05-09T13:50:34.279Z,20.86
2023-05-09T13:53:01.015Z,20.79
2023-05-09T13:55:27.794Z,20.79
2023-05-09T13:57:54.818Z,20.80
2023-05-09T14:00:22.112Z,20.72
2023-05-09T14:02:48.949Z,20.68
2023-05-09T14:05:16.773Z,20.74
2023-05-09T14:07:43.671Z,20.58
2023-05-09T14:10:12.304Z,20.64
2023-05-09T14:12:40.424Z,20.64
2023-05-09T14:15:08.256Z,20.64
2023-05-09T14:17:35.097Z,20.55
2023-05-09T14:20:02.209Z,20.52
2023-05-09T14:22:31.071Z,20.55
2023-05-09T14:24:58.539Z,20.52
2023-05-09T14:27:26.165Z,20.57
2023-05-09T14:29:53.017Z,20.62
2023-05-09T14:32:19.692Z,20.60
2023-05-09T14:34:49.322Z,20.54
2023-05-09T14:37:16.153Z,20.39
2023-05-09T14:39:43.950Z,20.40
2023-05-09T14:42:11.638Z,20.45
2023-05-09T14:44:38.930Z,20.47
2023-05-09T14:47:06.292Z,20.41
2023-05-09T14:49:33.227Z,20.36
2023-05-09T14:52:00.280Z,20.39
2023-05-09T14:54:27.120Z,20.31
2023-05-09T14:56:53.869Z,20.32
2023-05-09T14:59:21.014Z,20.23
2023-05-09T15:01:47.879Z,20.16
2023-05-09T15:04:14.562Z,20.21
2023-05-09T15:06:41.320Z,20.24
2023-05-09T15:09:08.521Z,20.25
2023-05-09T15:11:46.786Z,20.27
2023-05-09T15:14:15.235Z,20.34
2023-05-09T15:16:42.145Z,20.25
2023-05-09T15:19:08.922Z,20.27
2023-05-09T15:21:36.040Z,20.45
2023-05-09T15:24:04.707Z,20.48
2023-05-09T15:26:32.053Z,20.33
2023-05-09T15:28:58.795Z,20.22
2023-05-09T15:31:25.816Z,20.25
2023-05-09T15:33:52.737Z,20.27
2023-05-09T15:36:19.491Z,20.24
2023-05-09T15:38:49.208Z,20.24
2023-05-09T15:41:16.852Z,20.15
2023-05-09T15:43:43.752Z,20.15
2023-05-09T15:46:10.703Z,20.21
2023-05-09T15:48:37.549Z,20.27
2023-05-09T15:51:04.408Z,20.20
2023-05-09T15:53:31.256Z,20.19
2023-05-09T15:55:57.977Z,20.48
2023-05-09T15:58:24.840Z,20.38
2023-05-09T16:00:51.663Z,20.38
2023-05-09T16:03:18.919Z,20.35
2023-05-09T16:05:45.692Z,20.38
2023-05-09T16:08:12.573Z,20.30
2023-05-09T16:10:39.294Z,20.25
2023-05-09T16:13:06.757Z,20.30
2023-05-09T16:15:33.925Z,20.32
2023-05-09T16:18:00.556Z,20.36
2023-05-09T16:20:27.249Z,20.26
2023-05-09T16:22:53.890Z,20.26
2023-05-09T16:25:20.585Z,20.41
2023-05-09T16:27:47.315Z,20.29
2023-05-09T16:30:14.853Z,20.35
2023-05-09T16:32:42.436Z,20.53
2023-05-09T16:35:09.492Z,20.47
2023-05-09T16:37:36.487Z,20.37
2023-05-09T16:40:04.328Z,20.36
2023-05-09T16:42:31.422Z,20.28
2023-05-09T16:44:58.075Z,20.25
2023-05-09T16:47:24.862Z,20.20
2023-05-09T16:49:51.644Z,20.12
2023-05-09T16:52:18.407Z,20.07
2023-05-09T16:54:45.145Z,20.24
2023-05-09T16:57:11.967Z,20.21
2023-05-09T16:59:39.600Z,20.11
2023-05-09T17:02:06.432Z,20.02
2023-05-09T17:04:34.748Z,20.02
2023-05-09T17:07:02.684Z,20.05
2023-05-09T17:09:29.506Z,19.95
2023-05-09T17:11:56.479Z,19.98
2023-05-09T17:14:23.320Z,20.03
2023-05-09T17:16:50.333Z,20.09
2023-05-09T17:19:16.980Z,20.12
2023-05-09T17:21:44.166Z,20.05
2023-05-09T17:24:11.044Z,20.07
2023-05-09T17:26:38.619Z,20.04
2023-05-09T17:29:05.770Z,19.90
2023-05-09T17:31:32.610Z,19.90
2023-05-09T17:33:59.280Z,19.95
2023-05-09T17:36:26.159Z,19.91
2023-05-09T17:38:52.815Z,19.90
2023-05-09T17:41:19.525Z,19.91
2023-05-09T17:43:46.204Z,19.82
2023-05-09T17:46:14.728Z,19.77
2023-05-09T17:48:41.993Z,19.72
2023-05-09T17:51:09.077Z,19.77
2023-05-09T17:53:35.756Z,19.78
2023-05-09T17:56:02.461Z,19.71
2023-05-09T17:58:29.994Z,19.70
2023-05-09T18:00:58.520Z,19.68
2023-05-09T18:03:28.908Z,19.64
2023-05-09T18:05:55.924Z,19.40
2023-05-09T18:08:22.869Z,19.05
2023-05-09T18:10:49.814Z,18.52
2023-05-09T18:13:17.065Z,18.10
2023-05-09T18:15:43.845Z,18.05
2023-05-09T18:18:12.894Z,18.17
2023-05-09T18:20:42.092Z,18.13
2023-05-09T18:23:08.871Z,18.19
2023-05-09T18:25:35.873Z,18.16
2023-05-09T18:28:02.572Z,18.14
2023-05-09T18:30:29.310Z,18.06
2023-05-09T18:33:00.094Z,18.15
2023-05-09T18:35:26.903Z,18.13
2023-05-09T18:37:53.755Z,18.02
2023-05-09T18:40:20.420Z,18.00
2023-05-09T18:42:47.274Z,18.05
2023-05-09T18:45:14.152Z,17.97
2023-05-09T18:47:40.869Z,18.02
2023-05-09T18:50:08.101Z,18.01
2023-05-09T18:52:34.921Z,18.05
2023-05-09T18:55:01.663Z,18.03
2023-05-09T18:57:30.746Z,17.98
2023-05-09T18:59:58.142Z,17.88
2023-05-09T19:02:25.477Z,17.88
2023-05-09T19:04:52.429Z,17.98
2023-05-09T19:07:19.305Z,17.97
2023-05-09T19:09:46.080Z,17.98
2023-05-09T19:12:13.045Z,17.90
2023-05-09T19:14:40.102Z,17.92
2023-05-09T19:17:07.722Z,17.90
2023-05-09T19:19:34.575Z,17.83
2023-05-09T19:22:01.697Z,17.86
2023-05-09T19:24:28.590Z,17.77
2023-05-09T19:26:55.377Z,17.76
2023-05-09T19:29:22.097Z,17.82
2023-05-09T19:31:48.823Z,17.77
2023-05-09T19:34:15.567Z,17.69
2023-05-09T19:36:42.246Z,17.73
2023-05-09T19:39:09.149Z,17.71
2023-05-09T19:41:35.987Z,17.57
2023-05-09T19:44:02.945Z,17.39
2023-05-09T19:46:29.962Z,17.33
2023-05-09T19:48:56.938Z,17.24
2023-05-09T19:51:23.718Z,17.17
2023-05-09T19:53:50.653Z,17.20
2023-05-09T19:56:17.416Z,17.25
2023-05-09T19:58:44.384Z,17.23
2023-05-09T20:01:11.148Z,17.12
2023-05-09T20:03:40.642Z,17.18
2023-05-09T20:06:07.708Z,17.21
2023-05-09T20:08:34.686Z,17.00
2023-05-09T20:11:01.399Z,16.89
2023-05-09T20:13:28.367Z,16.91
2023-05-09T20:15:55.212Z,17.02
2023-05-09T20:18:21.922Z,17.09
2023-05-09T20:20:49.356Z,17.06
2023-05-09T20:23:16.229Z,16.97
2023-05-09T20:25:42.968Z,17.17
2023-05-09T20:28:11.763Z,17.18
2023-05-09T20:30:38.784Z,17.17
2023-05-09T20:33:05.572Z,17.35
2023-05-09T20:35:32.287Z,17.19
2023-05-09T20:37:58.949Z,17.13
2023-05-09T20:40:25.690Z,17.01
2023-05-09T20:42:53.432Z,16.92
2023-05-09T20:45:20.183Z,17.02
2023-05-09T20:47:46.876Z,17.09
2023-05-09T20:50:13.898Z,17.07
2023-05-09T20:52:40.893Z,17.16
2023-05-09T20:55:07.951Z,17.12
2023-05-09T20:57:34.678Z,17.24
2023-05-09T21:00:01.498Z,17.36
2023-05-09T21:02:28.580Z,17.35
2023-05-09T21:04:55.340Z,17.29
2023-05-09T21:07:22.311Z,17.25
2023-05-09T21:09:50.823Z,17.25
2023-05-09T21:12:17.507Z,17.31
2023-05-09T21:14:44.746Z,17.34
2023-05-09T21:17:11.797Z,17.21
2023-05-09T21:19:38.614Z,17.06
2023-05-09T21:22:05.457Z,17.04
2023-05-09T21:24:32.076Z,17.09
2023-05-09T21:26:58.789Z,17.16
2023-05-09T21:29:25.579Z,17.16
2023-05-09T21:31:52.824Z,17.23
2023-05-09T21:34:19.517Z,17.18
2023-05-09T21:36:46.234Z,17.02
2023-05-09T21:39:12.943Z,16.98
2023-05-09T21:41:40.459Z,16.99
2023-05-09T21:44:11.174Z,16.96
2023-05-09T21:46:38.338Z,16.95
2023-05-09T21:49:05.107Z,16.90
2023-05-09T21:51:33.257Z,16.81
2023-05-09T21:54:01.083Z,16.74
2023-05-09T21:56:27.867Z,16.78
2023-05-09T21:58:54.583Z,16.45
2023-05-09T22:01:21.323Z,16.52
2023-05-09T22:03:48.119Z,16.49
2023-05-09T22:06:14.885Z,16.30
2023-05-09T22:08:41.619Z,16.35
2023-05-09T22:11:08.452Z,16.25
2023-05-09T22:13:37.923Z,16.19
2023-05-09T22:16:04.947Z,16.22
2023-05-09T22:18:31.783Z,16.21
2023-05-09T22:20:58.948Z,16.14
2023-05-09T22:23:25.760Z,16.15
2023-05-09T22:25:52.459Z,16.15
2023-05-09T22:28:19.189Z,16.07
2023-05-09T22:30:45.872Z,16.17
2023-05-09T22:33:12.643Z,16.07
2023-05-09T22:35:39.512Z,15.97
2023-05-09T22:38:06.503Z,15.82
2023-05-09T22:40:33.926Z,15.86
2023-05-09T22:43:00.832Z,15.95
2023-05-09T22:45:27.621Z,15.93
2023-05-09T22:47:54.459Z,15.96
2023-05-09T22:50:21.338Z,15.95
2023-05-09T22:52:48.002Z,15.90
2023-05-09T22:55:14.868Z,15.86
2023-05-09T22:57:41.555Z,15.91
2023-05-09T23:00:09.134Z,15.98
2023-05-09T23:02:36.065Z,15.93
2023-05-09T23:05:03.528Z,15.79
2023-05-09T23:07:30.886Z,15.82
2023-05-09T23:09:57.621Z,15.90
2023-05-09T23:12:24.240Z,15.95
2023-05-09T23:14:50.864Z,15.99
2023-05-09T23:17:17.567Z,15.98
2023-05-09T23:19:44.231Z,15.88
2023-05-09T23:22:11.363Z,15.95
2023-05-09T23:24:38.028Z,15.95
2023-05-09T23:27:04.680Z,15.92
2023-05-09T23:29:31.309Z,15.87
2023-05-09T23:31:58.055Z,15.78
2023-05-09T23:34:25.355Z,15.78
2023-05-09T23:36:52.084Z,15.79
2023-05-09T23:39:19.810Z,15.82
2023-05-09T23:41:46.516Z,15.85
2023-05-09T23:44:13.192Z,15.88
2023-05-09T23:46:39.927Z,15.78
2023-05-09T23:49:07.234Z,15.86
2023-05-09T23:51:33.943Z,15.71
2023-05-09T23:54:00.809Z,15.69
2023-05-09T23:56:27.528Z,15.70
2023-05-09T23:58:54.222Z,15.80
